الصفحة الرئيسية
METAR-TAF:

METAR-TAF

مطار :

مدريد, إسبانيا

مطار مدريد باراخاس الدولي

دائرة عرض: 40-27N, خط طول: 003-33W, ارتفاع: 609 متر

مراقبة الطقس الحالي

تاريخ ووقت الإصدار 22 دقيقة قبل الساعة 08:30UTC
ريح 1 عقدةمن اتجاهات متغيرة
درجة الحرارة -2°درجة مئوية
الرطوبة 74%
ضغط 1009 hPa
الرؤية 10 كم أو أكثر
الغيوم لا تقل 1500 م ولا وجود لمزنة ركامية السحاب الأسود

METAR: LEMD 220830Z VRB01KT CAVOK M02/M06 Q1009 NOSIG

زمن: 09:52 (08:52 UTC)

توقعات

تاريخ ووقت الإصدار 3ساعات و 52 دقيقة قبل الساعة 05:00UTC
التوقعات صالحة من22 الساعة 06 UTC إلى 23 الساعة 12 UTC
ريح 5 عقدةمن اتجاهات متغيرة
الرؤية 10 كم أو أكثر
الغيوم لا تقل 1500 م ولا وجود لمزنة ركامية السحاب الأسود
أصبح
من 22 الساعة 08 UTC إلى 22 الساعة 10 UTC
ريح 10 عقدة من الشمال
مؤقت
من 22 الساعة 13 UTC إلى 22 الساعة 19 UTC
ريح 17 عقدة من الشمال
أصبح
من 22 الساعة 23 UTC إلى 23 الساعة 01 UTC
ريح 5 عقدةمن اتجاهات متغيرة

TAF: LEMD 220500Z 2206/2312 VRB05KT CAVOK TX11/2215Z TNM02/2206Z BECMG 2208/2210 01010KT TEMPO 2213/2219 01017KT BECMG 2223/2301 VRB05KT

أرصاد الطقس والتوقعات من أكثر من 4000 مطار (تقارير الطقس للمطار METAR والتنبؤ بالطقس بالمطارTAF).

المحطات المتاحة هي النقط الصفراء والحمراء على الخريطة.

حرك المؤشر فوق النقطة لمعرفة اسم المحطة.

ثم انقر لمعرفة أرصاد وتوقعات الطقس.

لتغيير الخارطة: اضغط على الأزرار الخضراء مع رمز الصليب الأسود للتكبير. على الزر الأخضر مع شرطة للتصغير، أو على الأسهم الخضراء للخرائط المجاورة.


METAR-TAF: